METAR Data
IDs: Format: Raw Decoded Include TAF

Data at: 1156 UTC 21 Oct 2018

KSPS 211152Z AUTO 34005KT 10SM CLR 07/06 A3035 RMK AO2 SLP274 P0001 60001 70001 T00720056 10128 20072 53003
KSPS 211052Z AUTO 35005KT 10SM CLR 08/06 A3034 RMK AO2 RAE01B19E32 SLP271 P0000 T00780061
KSPS 210952Z AUTO 32006KT 10SM -RA CLR 08/06 A3033 RMK AO2 RAB51 SLP268 P0000 T00830061
KSPS 210852Z AUTO 32003KT 10SM CLR 09/06 A3034 RMK AO2 SLP269 T00890061 57003
KSPS 210752Z AUTO 31004KT 10SM CLR 10/07 A3034 RMK AO2 SLP268 T01000072
KSPS 210652Z AUTO 30004KT 10SM CLR 12/06 A3035 RMK AO2 SLP272 T01220061
KSPS 210552Z AUTO 29003KT 10SM CLR 11/07 A3035 RMK AO2 SLP272 T01110067 10178 20111 402110100 50003
KSPS 210452Z AUTO 32004KT 10SM CLR 13/07 A3035 RMK AO2 SLP272 T01330072
KSPS 210352Z AUTO 32005KT 10SM CLR 13/07 A3035 RMK AO2 SLP273 T01330072
KSPS 210252Z AUTO 32006KT 10SM CLR 13/09 A3034 RMK AO2 SLP271 T01280089 51012
KSPS 210152Z AUTO 31003KT 10SM CLR 14/08 A3033 RMK AO2 SLP266 T01440078
KSPS 210052Z AUTO 00000KT 10SM CLR 16/08 A3032 RMK AO2 SLP264 T01610078
KSPS 202352Z AUTO 07003KT 10SM CLR 18/08 A3030 RMK AO2 SLP257 T01780078 10211 20172 51005
KSPS 202252Z AUTO 05003KT 10SM CLR 18/09 A3030 RMK AO2 SLP256 T01780094
KSPS 202152Z AUTO 03009KT 10SM CLR 19/07 A3029 RMK AO2 SLP253 T01940067
KSPS 202052Z AUTO 03010KT 10SM CLR 21/07 A3029 RMK AO2 SLP250 T02110072 56010
KSPS 201952Z AUTO 02008KT 10SM CLR 21/08 A3029 RMK AO2 SLP251 T02060078
KSPS 201852Z AUTO 04013KT 10SM CLR 19/07 A3031 RMK AO2 SLP257 T01940072
KSPS 201752Z AUTO 05013KT 10SM CLR 19/07 A3032 RMK AO2 SLP260 60000 T01890072 10194 20100 50006
KSPS 201652Z AUTO 05016KT 10SM CLR 18/09 A3033 RMK AO2 SLP263 T01830089
KSPS 201552Z AUTO 03013KT CLR 16/11 A3032 RMK AO2 SLP264 T01610111 PWINO $
KSPS 201452Z AUTO 02009KT CLR 14/12 A3030 RMK AO2 SLP257 60000 T01390122 53025 PWINO $
KSPS 201352Z AUTO 35009KT CLR 12/11 A3026 RMK AO2 SLP244 T01170106 PWINO $
KSPS 201252Z AUTO 34008KT CLR 10/09 A3024 RMK AO2 SLP237 P0000 T01000094 PWINO $
KSPS 201235Z AUTO 34009KT SCT001 11/10 A3024 RMK AO2 P0000 T01060100 PWINO $
KSPS 201152Z AUTO 35006KT 6SM -RA BR OVC002 11/10 A3023 RMK AO2 RAB39 SLP232 P0000 60000 70037 T01060100 10122 20106 53014
KSPS 201052Z AUTO 35005KT 9SM OVC002 11/10 A3020 RMK AO2 SLP224 T01060100
KSPS 200952Z AUTO 34005KT 10SM OVC001 11/10 A3019 RMK AO2 SLP219 T01060100
KSPS 200852Z AUTO 36003KT 10SM OVC002 11/10 A3018 RMK AO2 SLP217 T01060100 53005
KSPS 200752Z AUTO 06003KT 10SM OVC001 11/11 A3018 RMK AO2 SLP217 T01110106
KSPS 200652Z AUTO 00000KT 10SM OVC001 12/11 A3017 RMK AO2 SLP212 T01220111
KSPS 200552Z AUTO 00000KT 9SM BKN001 13/12 A3017 RMK AO2 SLP212 T01280117 10150 20122 401560122 51005
KSPS 200544Z AUTO 00000KT 10SM SCT002 13/12 A3017 RMK AO2 T01280117
KSPS 200452Z AUTO 00000KT 10SM CLR 13/12 A3017 RMK AO2 SLP210 T01330122
KSPS 200352Z AUTO 17003KT 10SM CLR 13/12 A3016 RMK AO2 SLP208 T01280122
KSPS 200252Z AUTO 18005KT 10SM CLR 12/12 A3015 RMK AO2 SLP207 T01220117 50010
KSPS 200152Z AUTO 15003KT 10SM CLR 14/13 A3016 RMK AO2 SLP208 T01390128
KSPS 200052Z 00000KT 10SM CLR 14/13 A3014 RMK AO2 SLP201 T01440133